sensor_id;sensor_type;location;lat;lon;timestamp;temperature;humidity
8226;DHT22;4154;48.810;9.012;2024-02-14T00:03:46;3.40;97.90
8226;DHT22;4154;48.810;9.012;2024-02-14T00:06:12;3.30;98.10
8226;DHT22;4154;48.810;9.012;2024-02-14T00:08:38;3.40;98.10
8226;DHT22;4154;48.810;9.012;2024-02-14T00:11:04;3.40;98.20
8226;DHT22;4154;48.810;9.012;2024-02-14T00:13:29;3.30;98.20
8226;DHT22;4154;48.810;9.012;2024-02-14T00:15:57;3.40;98.30
8226;DHT22;4154;48.810;9.012;2024-02-14T00:18:23;3.40;98.40
8226;DHT22;4154;48.810;9.012;2024-02-14T00:20:48;3.40;98.50
8226;DHT22;4154;48.810;9.012;2024-02-14T00:23:14;3.40;98.50
8226;DHT22;4154;48.810;9.012;2024-02-14T00:25:40;3.50;98.60
8226;DHT22;4154;48.810;9.012;2024-02-14T00:28:06;3.50;98.70
8226;DHT22;4154;48.810;9.012;2024-02-14T00:30:31;3.60;98.80
8226;DHT22;4154;48.810;9.012;2024-02-14T00:32:57;3.70;98.70
8226;DHT22;4154;48.810;9.012;2024-02-14T00:35:23;3.80;98.70
8226;DHT22;4154;48.810;9.012;2024-02-14T00:37:49;3.80;98.60
8226;DHT22;4154;48.810;9.012;2024-02-14T00:40:15;3.90;98.70
8226;DHT22;4154;48.810;9.012;2024-02-14T00:42:40;4.00;98.60
8226;DHT22;4154;48.810;9.012;2024-02-14T00:45:06;4.00;98.60
8226;DHT22;4154;48.810;9.012;2024-02-14T00:47:36;4.10;99.90
8226;DHT22;4154;48.810;9.012;2024-02-14T00:50:02;4.20;98.60
8226;DHT22;4154;48.810;9.012;2024-02-14T00:52:28;4.20;98.70
8226;DHT22;4154;48.810;9.012;2024-02-14T00:54:54;4.30;98.70
8226;DHT22;4154;48.810;9.012;2024-02-14T00:57:21;4.20;98.70
8226;DHT22;4154;48.810;9.012;2024-02-14T00:59:51;4.30;98.80
8226;DHT22;4154;48.810;9.012;2024-02-14T01:02:18;4.30;98.90
8226;DHT22;4154;48.810;9.012;2024-02-14T01:07:10;4.50;98.80
8226;DHT22;4154;48.810;9.012;2024-02-14T01:09:35;4.60;99.10
8226;DHT22;4154;48.810;9.012;2024-02-14T01:12:02;4.60;99.20
8226;DHT22;4154;48.810;9.012;2024-02-14T01:14:28;4.60;99.50
8226;DHT22;4154;48.810;9.012;2024-02-14T01:16:53;4.60;99.40
8226;DHT22;4154;48.810;9.012;2024-02-14T01:19:22;4.60;99.50
8226;DHT22;4154;48.810;9.012;2024-02-14T01:21:51;4.70;99.50
8226;DHT22;4154;48.810;9.012;2024-02-14T01:24:16;4.70;99.50
8226;DHT22;4154;48.810;9.012;2024-02-14T01:26:42;4.70;99.60
8226;DHT22;4154;48.810;9.012;2024-02-14T01:29:07;4.70;99.70
8226;DHT22;4154;48.810;9.012;2024-02-14T01:31:33;4.70;99.80
8226;DHT22;4154;48.810;9.012;2024-02-14T01:34:02;4.80;99.90
8226;DHT22;4154;48.810;9.012;2024-02-14T01:36:31;4.80;99.90
8226;DHT22;4154;48.810;9.012;2024-02-14T01:38:56;4.80;99.90
8226;DHT22;4154;48.810;9.012;2024-02-14T01:41:22;4.80;99.90
8226;DHT22;4154;48.810;9.012;2024-02-14T01:43:48;4.80;99.90
8226;DHT22;4154;48.810;9.012;2024-02-14T01:48:41;4.80;99.90
8226;DHT22;4154;48.810;9.012;2024-02-14T01:51:09;4.80;99.90
8226;DHT22;4154;48.810;9.012;2024-02-14T01:56:04;4.90;99.90
8226;DHT22;4154;48.810;9.012;2024-02-14T01:58:31;4.80;99.90
8226;DHT22;4154;48.810;9.012;2024-02-14T02:00:59;4.90;99.90
8226;DHT22;4154;48.810;9.012;2024-02-14T02:03:26;4.90;99.90
8226;DHT22;4154;48.810;9.012;2024-02-14T02:05:52;4.90;99.90
8226;DHT22;4154;48.810;9.012;2024-02-14T02:08:20;4.90;99.90
8226;DHT22;4154;48.810;9.012;2024-02-14T02:10:46;4.90;99.90
8226;DHT22;4154;48.810;9.012;2024-02-14T02:13:12;4.90;99.90
8226;DHT22;4154;48.810;9.012;2024-02-14T02:15:41;5.00;99.90
8226;DHT22;4154;48.810;9.012;2024-02-14T02:18:09;5.00;99.90
8226;DHT22;4154;48.810;9.012;2024-02-14T02:20:35;5.10;99.90
8226;DHT22;4154;48.810;9.012;2024-02-14T02:23:01;5.10;99.90
8226;DHT22;4154;48.810;9.012;2024-02-14T02:25:27;5.10;99.90
8226;DHT22;4154;48.810;9.012;2024-02-14T02:27:53;5.10;99.90
8226;DHT22;4154;48.810;9.012;2024-02-14T02:30:22;5.10;99.90
8226;DHT22;4154;48.810;9.012;2024-02-14T02:35:15;5.10;99.90
8226;DHT22;4154;48.810;9.012;2024-02-14T02:37:41;5.10;99.90
8226;DHT22;4154;48.810;9.012;2024-02-14T02:40:08;5.10;99.90
8226;DHT22;4154;48.810;9.012;2024-02-14T02:42:36;5.10;99.90
8226;DHT22;4154;48.810;9.012;2024-02-14T02:45:02;5.10;99.90
8226;DHT22;4154;48.810;9.012;2024-02-14T02:47:31;5.00;99.90
8226;DHT22;4154;48.810;9.012;2024-02-14T02:49:57;5.10;99.90
8226;DHT22;4154;48.810;9.012;2024-02-14T02:52:25;5.10;99.90
8226;DHT22;4154;48.810;9.012;2024-02-14T02:54:51;5.10;99.90
8226;DHT22;4154;48.810;9.012;2024-02-14T02:57:18;5.10;99.90
8226;DHT22;4154;48.810;9.012;2024-02-14T02:59:44;5.10;99.90
8226;DHT22;4154;48.810;9.012;2024-02-14T03:02:11;5.10;99.80
8226;DHT22;4154;48.810;9.012;2024-02-14T03:07:04;5.10;99.60
8226;DHT22;4154;48.810;9.012;2024-02-14T03:09:36;5.10;99.70
8226;DHT22;4154;48.810;9.012;2024-02-14T03:12:03;5.10;99.70
8226;DHT22;4154;48.810;9.012;2024-02-14T03:14:33;5.10;99.70
8226;DHT22;4154;48.810;9.012;2024-02-14T03:17:02;5.10;99.70
8226;DHT22;4154;48.810;9.012;2024-02-14T03:19:29;5.10;99.60
8226;DHT22;4154;48.810;9.012;2024-02-14T03:21:55;5.10;99.60
8226;DHT22;4154;48.810;9.012;2024-02-14T03:24:22;5.00;99.50
8226;DHT22;4154;48.810;9.012;2024-02-14T03:26:51;5.10;99.60
8226;DHT22;4154;48.810;9.012;2024-02-14T03:29:19;5.20;99.90
8226;DHT22;4154;48.810;9.012;2024-02-14T03:31:46;5.10;99.60
8226;DHT22;4154;48.810;9.012;2024-02-14T03:34:12;5.10;99.50
8226;DHT22;4154;48.810;9.012;2024-02-14T03:36:38;5.10;99.50
8226;DHT22;4154;48.810;9.012;2024-02-14T03:39:04;5.10;99.50
8226;DHT22;4154;48.810;9.012;2024-02-14T03:43:58;5.20;99.20
8226;DHT22;4154;48.810;9.012;2024-02-14T03:48:56;5.20;99.10
8226;DHT22;4154;48.810;9.012;2024-02-14T03:51:24;5.20;99.10
8226;DHT22;4154;48.810;9.012;2024-02-14T03:53:50;5.20;99.30
8226;DHT22;4154;48.810;9.012;2024-02-14T03:56:16;5.20;99.30
8226;DHT22;4154;48.810;9.012;2024-02-14T03:58:42;5.20;99.30
8226;DHT22;4154;48.810;9.012;2024-02-14T04:01:08;5.20;99.30
8226;DHT22;4154;48.810;9.012;2024-02-14T04:03:34;5.20;99.40
8226;DHT22;4154;48.810;9.012;2024-02-14T04:06:00;5.20;99.40
8226;DHT22;4154;48.810;9.012;2024-02-14T04:08:26;5.30;99.40
8226;DHT22;4154;48.810;9.012;2024-02-14T04:10:51;5.30;99.30
8226;DHT22;4154;48.810;9.012;2024-02-14T04:13:19;5.30;99.30
8226;DHT22;4154;48.810;9.012;2024-02-14T04:15:45;5.30;99.20
8226;DHT22;4154;48.810;9.012;2024-02-14T04:18:12;5.30;99.10
8226;DHT22;4154;48.810;9.012;2024-02-14T04:20:41;5.30;99.20
8226;DHT22;4154;48.810;9.012;2024-02-14T04:25:33;5.30;99.00
8226;DHT22;4154;48.810;9.012;2024-02-14T04:27:59;5.30;99.30
8226;DHT22;4154;48.810;9.012;2024-02-14T04:30:26;5.30;99.30
8226;DHT22;4154;48.810;9.012;2024-02-14T04:32:51;5.40;99.20
8226;DHT22;4154;48.810;9.012;2024-02-14T04:40:14;5.50;99.00
8226;DHT22;4154;48.810;9.012;2024-02-14T04:42:41;5.60;99.20
8226;DHT22;4154;48.810;9.012;2024-02-14T04:45:07;5.70;99.10
8226;DHT22;4154;48.810;9.012;2024-02-14T04:47:34;5.70;99.90
8226;DHT22;4154;48.810;9.012;2024-02-14T04:50:00;5.70;99.10
8226;DHT22;4154;48.810;9.012;2024-02-14T04:52:29;5.70;99.10
8226;DHT22;4154;48.810;9.012;2024-02-14T04:54:55;5.70;99.00
8226;DHT22;4154;48.810;9.012;2024-02-14T04:59:48;5.40;98.70
8226;DHT22;4154;48.810;9.012;2024-02-14T05:02:13;5.90;98.90
8226;DHT22;4154;48.810;9.012;2024-02-14T05:04:39;5.90;98.90
8226;DHT22;4154;48.810;9.012;2024-02-14T05:07:05;5.90;98.80
8226;DHT22;4154;48.810;9.012;2024-02-14T05:09:31;5.90;98.80
8226;DHT22;4154;48.810;9.012;2024-02-14T05:11:57;5.90;98.80
8226;DHT22;4154;48.810;9.012;2024-02-14T05:14:23;5.90;98.80
8226;DHT22;4154;48.810;9.012;2024-02-14T05:16:48;5.90;98.90
8226;DHT22;4154;48.810;9.012;2024-02-14T05:19:14;5.90;99.00
8226;DHT22;4154;48.810;9.012;2024-02-14T05:24:06;5.90;98.80
8226;DHT22;4154;48.810;9.012;2024-02-14T05:26:32;5.90;99.00
8226;DHT22;4154;48.810;9.012;2024-02-14T05:28:58;5.90;99.00
8226;DHT22;4154;48.810;9.012;2024-02-14T05:31:24;5.90;99.00
8226;DHT22;4154;48.810;9.012;2024-02-14T05:36:20;5.90;99.00
8226;DHT22;4154;48.810;9.012;2024-02-14T05:38:45;5.80;99.10
8226;DHT22;4154;48.810;9.012;2024-02-14T05:41:11;5.80;99.10
8226;DHT22;4154;48.810;9.012;2024-02-14T05:43:37;5.80;99.10
8226;DHT22;4154;48.810;9.012;2024-02-14T05:48:29;5.80;99.00
8226;DHT22;4154;48.810;9.012;2024-02-14T05:50:55;5.80;99.10
8226;DHT22;4154;48.810;9.012;2024-02-14T05:53:21;5.80;99.00
8226;DHT22;4154;48.810;9.012;2024-02-14T05:55:46;5.90;99.00
8226;DHT22;4154;48.810;9.012;2024-02-14T05:58:12;5.80;99.10
8226;DHT22;4154;48.810;9.012;2024-02-14T06:00:38;5.80;99.00
8226;DHT22;4154;48.810;9.012;2024-02-14T06:03:04;5.90;99.10
8226;DHT22;4154;48.810;9.012;2024-02-14T06:05:31;5.90;98.90
8226;DHT22;4154;48.810;9.012;2024-02-14T06:07:57;6.00;98.90
8226;DHT22;4154;48.810;9.012;2024-02-14T06:10:22;6.00;98.80
8226;DHT22;4154;48.810;9.012;2024-02-14T06:12:50;6.10;98.70
8226;DHT22;4154;48.810;9.012;2024-02-14T06:15:16;6.10;98.60
8226;DHT22;4154;48.810;9.012;2024-02-14T06:17:42;6.10;98.50
8226;DHT22;4154;48.810;9.012;2024-02-14T06:20:09;6.20;98.50
8226;DHT22;4154;48.810;9.012;2024-02-14T06:22:35;6.20;98.50
8226;DHT22;4154;48.810;9.012;2024-02-14T06:25:01;6.20;98.70
8226;DHT22;4154;48.810;9.012;2024-02-14T06:27:30;6.10;99.90
8226;DHT22;4154;48.810;9.012;2024-02-14T06:29:56;6.20;98.50
8226;DHT22;4154;48.810;9.012;2024-02-14T06:32:22;6.20;98.50
8226;DHT22;4154;48.810;9.012;2024-02-14T06:34:47;6.20;98.50
8226;DHT22;4154;48.810;9.012;2024-02-14T06:37:13;6.20;98.50
8226;DHT22;4154;48.810;9.012;2024-02-14T06:39:39;6.30;98.40
8226;DHT22;4154;48.810;9.012;2024-02-14T06:42:04;6.30;98.30
8226;DHT22;4154;48.810;9.012;2024-02-14T06:44:30;6.40;98.30
8226;DHT22;4154;48.810;9.012;2024-02-14T06:46:56;6.40;98.30
8226;DHT22;4154;48.810;9.012;2024-02-14T06:49:21;6.50;98.10
8226;DHT22;4154;48.810;9.012;2024-02-14T06:56:39;6.50;97.80
8226;DHT22;4154;48.810;9.012;2024-02-14T06:59:04;6.50;98.00
8226;DHT22;4154;48.810;9.012;2024-02-14T07:01:30;6.50;98.00
8226;DHT22;4154;48.810;9.012;2024-02-14T07:06:23;6.50;98.20
8226;DHT22;4154;48.810;9.012;2024-02-14T07:13:42;6.50;98.10
8226;DHT22;4154;48.810;9.012;2024-02-14T07:16:07;6.50;98.30
8226;DHT22;4154;48.810;9.012;2024-02-14T07:18:36;6.50;98.40
8226;DHT22;4154;48.810;9.012;2024-02-14T07:21:02;6.50;98.40
8226;DHT22;4154;48.810;9.012;2024-02-14T07:25:58;6.50;98.10
8226;DHT22;4154;48.810;9.012;2024-02-14T07:28:23;6.60;98.40
8226;DHT22;4154;48.810;9.012;2024-02-14T07:30:49;6.70;98.30
8226;DHT22;4154;48.810;9.012;2024-02-14T07:33:15;6.70;98.00
8226;DHT22;4154;48.810;9.012;2024-02-14T07:35:41;6.80;97.70
8226;DHT22;4154;48.810;9.012;2024-02-14T07:43:00;6.90;97.60
8226;DHT22;4154;48.810;9.012;2024-02-14T07:45:26;7.00;97.80
8226;DHT22;4154;48.810;9.012;2024-02-14T07:47:52;7.00;97.80
8226;DHT22;4154;48.810;9.012;2024-02-14T07:52:45;7.00;97.60
8226;DHT22;4154;48.810;9.012;2024-02-14T07:55:11;7.00;98.00
8226;DHT22;4154;48.810;9.012;2024-02-14T07:57:38;7.20;99.90
8226;DHT22;4154;48.810;9.012;2024-02-14T08:00:08;7.20;97.80
8226;DHT22;4154;48.810;9.012;2024-02-14T08:02:35;7.30;97.90
8226;DHT22;4154;48.810;9.012;2024-02-14T08:05:01;7.30;97.90
8226;DHT22;4154;48.810;9.012;2024-02-14T08:07:27;7.30;99.90
8226;DHT22;4154;48.810;9.012;2024-02-14T08:09:54;7.30;97.90
8226;DHT22;4154;48.810;9.012;2024-02-14T08:12:20;7.40;98.00
8226;DHT22;4154;48.810;9.012;2024-02-14T08:14:46;7.40;98.00
8226;DHT22;4154;48.810;9.012;2024-02-14T08:17:12;7.50;98.10
8226;DHT22;4154;48.810;9.012;2024-02-14T08:24:32;7.70;97.70
8226;DHT22;4154;48.810;9.012;2024-02-14T08:26:57;7.80;97.90
8226;DHT22;4154;48.810;9.012;2024-02-14T08:29:23;7.80;98.00
8226;DHT22;4154;48.810;9.012;2024-02-14T08:31:49;7.90;97.90
8226;DHT22;4154;48.810;9.012;2024-02-14T08:34:15;8.00;97.80
8226;DHT22;4154;48.810;9.012;2024-02-14T08:36:42;8.10;97.80
8226;DHT22;4154;48.810;9.012;2024-02-14T08:41:37;8.20;97.70
8226;DHT22;4154;48.810;9.012;2024-02-14T08:44:04;8.20;98.00
8226;DHT22;4154;48.810;9.012;2024-02-14T08:46:32;8.20;97.90
8226;DHT22;4154;48.810;9.012;2024-02-14T08:49:00;8.30;97.90
8226;DHT22;4154;48.810;9.012;2024-02-14T08:51:36;8.30;97.70
8226;DHT22;4154;48.810;9.012;2024-02-14T08:54:03;8.30;97.60
8226;DHT22;4154;48.810;9.012;2024-02-14T08:56:32;8.40;97.60
8226;DHT22;4154;48.810;9.012;2024-02-14T08:59:00;8.40;97.70
8226;DHT22;4154;48.810;9.012;2024-02-14T09:01:31;8.50;97.80
8226;DHT22;4154;48.810;9.012;2024-02-14T09:03:57;8.50;97.90
8226;DHT22;4154;48.810;9.012;2024-02-14T09:06:24;8.60;98.00
8226;DHT22;4154;48.810;9.012;2024-02-14T09:11:19;8.70;97.90
8226;DHT22;4154;48.810;9.012;2024-02-14T09:13:44;8.80;98.00
8226;DHT22;4154;48.810;9.012;2024-02-14T09:16:13;8.80;97.90
8226;DHT22;4154;48.810;9.012;2024-02-14T09:18:40;8.90;98.10
8226;DHT22;4154;48.810;9.012;2024-02-14T09:21:06;8.90;98.00
8226;DHT22;4154;48.810;9.012;2024-02-14T09:23:32;9.00;97.60
8226;DHT22;4154;48.810;9.012;2024-02-14T09:25:58;9.10;97.70
8226;DHT22;4154;48.810;9.012;2024-02-14T09:30:50;9.20;97.20
8226;DHT22;4154;48.810;9.012;2024-02-14T09:33:16;9.30;97.60
8226;DHT22;4154;48.810;9.012;2024-02-14T09:35:42;9.40;97.60
8226;DHT22;4154;48.810;9.012;2024-02-14T09:38:11;9.50;97.40
8226;DHT22;4154;48.810;9.012;2024-02-14T09:40:42;9.50;97.20
8226;DHT22;4154;48.810;9.012;2024-02-14T09:43:32;9.50;97.10
8226;DHT22;4154;48.810;9.012;2024-02-14T09:46:03;9.60;97.00
8226;DHT22;4154;48.810;9.012;2024-02-14T09:48:30;9.70;96.70
8226;DHT22;4154;48.810;9.012;2024-02-14T09:50:57;9.70;96.80
8226;DHT22;4154;48.810;9.012;2024-02-14T09:53:23;9.70;97.00
8226;DHT22;4154;48.810;9.012;2024-02-14T09:55:50;9.80;96.80
8226;DHT22;4154;48.810;9.012;2024-02-14T09:58:17;9.80;97.00
8226;DHT22;4154;48.810;9.012;2024-02-14T10:00:43;9.90;96.90
8226;DHT22;4154;48.810;9.012;2024-02-14T10:03:09;9.80;97.00
8226;DHT22;4154;48.810;9.012;2024-02-14T10:05:35;9.80;97.00
8226;DHT22;4154;48.810;9.012;2024-02-14T10:08:01;9.80;97.10
8226;DHT22;4154;48.810;9.012;2024-02-14T10:10:28;9.90;97.10
8226;DHT22;4154;48.810;9.012;2024-02-14T10:12:54;9.90;97.00
8226;DHT22;4154;48.810;9.012;2024-02-14T10:15:22;9.90;96.90
8226;DHT22;4154;48.810;9.012;2024-02-14T10:17:48;9.90;97.10
8226;DHT22;4154;48.810;9.012;2024-02-14T10:20:17;9.90;97.20
8226;DHT22;4154;48.810;9.012;2024-02-14T10:22:43;9.90;97.40
8226;DHT22;4154;48.810;9.012;2024-02-14T10:25:09;10.00;96.90
8226;DHT22;4154;48.810;9.012;2024-02-14T10:27:37;10.00;99.90
8226;DHT22;4154;48.810;9.012;2024-02-14T10:30:07;10.00;97.30
8226;DHT22;4154;48.810;9.012;2024-02-14T10:32:35;10.10;97.30
8226;DHT22;4154;48.810;9.012;2024-02-14T10:35:04;10.10;97.50
8226;DHT22;4154;48.810;9.012;2024-02-14T10:37:34;10.40;99.90
8226;DHT22;4154;48.810;9.012;2024-02-14T10:40:04;10.40;97.50
8226;DHT22;4154;48.810;9.012;2024-02-14T10:42:31;10.50;97.50
8226;DHT22;4154;48.810;9.012;2024-02-14T10:45:02;10.50;97.50
8226;DHT22;4154;48.810;9.012;2024-02-14T10:47:34;10.80;99.90
8226;DHT22;4154;48.810;9.012;2024-02-14T10:50:02;10.70;97.80
8226;DHT22;4154;48.810;9.012;2024-02-14T10:52:34;10.70;98.30
8226;DHT22;4154;48.810;9.012;2024-02-14T10:55:05;10.80;98.00
8226;DHT22;4154;48.810;9.012;2024-02-14T10:57:31;11.10;99.90
8226;DHT22;4154;48.810;9.012;2024-02-14T11:00:01;11.00;98.10
8226;DHT22;4154;48.810;9.012;2024-02-14T11:02:33;11.10;98.30
8226;DHT22;4154;48.810;9.012;2024-02-14T11:04:59;11.20;98.60
8226;DHT22;4154;48.810;9.012;2024-02-14T11:07:27;11.10;99.90
8226;DHT22;4154;48.810;9.012;2024-02-14T11:10:06;11.30;98.90
8226;DHT22;4154;48.810;9.012;2024-02-14T11:12:34;11.40;98.60
8226;DHT22;4154;48.810;9.012;2024-02-14T11:17:43;11.40;98.80
8226;DHT22;4154;48.810;9.012;2024-02-14T11:20:16;11.50;98.80
8226;DHT22;4154;48.810;9.012;2024-02-14T11:22:57;11.40;98.80
8226;DHT22;4154;48.810;9.012;2024-02-14T11:25:34;11.50;98.80
8226;DHT22;4154;48.810;9.012;2024-02-14T11:28:14;11.50;98.90
8226;DHT22;4154;48.810;9.012;2024-02-14T11:30:42;11.50;98.80
8226;DHT22;4154;48.810;9.012;2024-02-14T11:33:22;11.50;98.60
8226;DHT22;4154;48.810;9.012;2024-02-14T11:35:50;11.50;98.60
8226;DHT22;4154;48.810;9.012;2024-02-14T11:38:18;11.50;98.70
8226;DHT22;4154;48.810;9.012;2024-02-14T11:40:45;11.50;98.70
8226;DHT22;4154;48.810;9.012;2024-02-14T11:43:15;11.50;98.70
8226;DHT22;4154;48.810;9.012;2024-02-14T11:45:46;11.60;98.90
8226;DHT22;4154;48.810;9.012;2024-02-14T11:48:15;11.70;98.80
8226;DHT22;4154;48.810;9.012;2024-02-14T11:50:43;11.70;98.80
8226;DHT22;4154;48.810;9.012;2024-02-14T11:53:14;11.80;98.50
8226;DHT22;4154;48.810;9.012;2024-02-14T11:55:44;11.80;98.50
8226;DHT22;4154;48.810;9.012;2024-02-14T11:58:16;11.90;98.70
8226;DHT22;4154;48.810;9.012;2024-02-14T12:00:44;11.90;98.60
8226;DHT22;4154;48.810;9.012;2024-02-14T12:03:33;11.90;98.80
8226;DHT22;4154;48.810;9.012;2024-02-14T12:05:58;12.00;98.60
8226;DHT22;4154;48.810;9.012;2024-02-14T12:08:24;12.00;98.60
8226;DHT22;4154;48.810;9.012;2024-02-14T12:10:49;12.10;98.60
8226;DHT22;4154;48.810;9.012;2024-02-14T12:13:17;12.20;98.60
8226;DHT22;4154;48.810;9.012;2024-02-14T12:15:47;12.30;98.70
8226;DHT22;4154;48.810;9.012;2024-02-14T12:18:14;12.30;98.30
8226;DHT22;4154;48.810;9.012;2024-02-14T12:20:42;12.40;98.50
8226;DHT22;4154;48.810;9.012;2024-02-14T12:23:17;12.50;98.60
8226;DHT22;4154;48.810;9.012;2024-02-14T12:25:44;12.50;98.30
8226;DHT22;4154;48.810;9.012;2024-02-14T12:28:18;12.60;98.10
8226;DHT22;4154;48.810;9.012;2024-02-14T12:30:49;12.70;97.90
8226;DHT22;4154;48.810;9.012;2024-02-14T12:33:17;12.80;98.00
8226;DHT22;4154;48.810;9.012;2024-02-14T12:35:50;12.80;97.90
8226;DHT22;4154;48.810;9.012;2024-02-14T12:38:19;12.80;98.00
8226;DHT22;4154;48.810;9.012;2024-02-14T12:40:46;12.90;98.10
8226;DHT22;4154;48.810;9.012;2024-02-14T12:43:13;13.00;97.80
8226;DHT22;4154;48.810;9.012;2024-02-14T12:45:43;13.00;97.70
8226;DHT22;4154;48.810;9.012;2024-02-14T12:48:10;13.10;98.00
8226;DHT22;4154;48.810;9.012;2024-02-14T12:50:41;13.10;97.90
8226;DHT22;4154;48.810;9.012;2024-02-14T12:53:13;13.10;97.70
8226;DHT22;4154;48.810;9.012;2024-02-14T12:55:39;13.20;97.60
8226;DHT22;4154;48.810;9.012;2024-02-14T12:58:04;13.30;97.60
8226;DHT22;4154;48.810;9.012;2024-02-14T13:00:30;13.30;97.60
8226;DHT22;4154;48.810;9.012;2024-02-14T13:02:57;13.30;97.60
8226;DHT22;4154;48.810;9.012;2024-02-14T13:05:23;13.40;97.90
8226;DHT22;4154;48.810;9.012;2024-02-14T13:07:49;13.40;97.90
8226;DHT22;4154;48.810;9.012;2024-02-14T13:10:15;13.50;97.50
8226;DHT22;4154;48.810;9.012;2024-02-14T13:12:41;13.60;97.60
8226;DHT22;4154;48.810;9.012;2024-02-14T13:15:09;13.60;97.50
8226;DHT22;4154;48.810;9.012;2024-02-14T13:17:35;13.80;99.90
8226;DHT22;4154;48.810;9.012;2024-02-14T13:20:00;13.70;97.50
8226;DHT22;4154;48.810;9.012;2024-02-14T13:22:26;13.70;97.40
8226;DHT22;4154;48.810;9.012;2024-02-14T13:24:53;13.80;97.40
8226;DHT22;4154;48.810;9.012;2024-02-14T13:27:18;13.90;97.60
8226;DHT22;4154;48.810;9.012;2024-02-14T13:29:48;13.90;97.40
8226;DHT22;4154;48.810;9.012;2024-02-14T13:32:15;14.00;97.30
8226;DHT22;4154;48.810;9.012;2024-02-14T13:34:41;14.10;97.20
8226;DHT22;4154;48.810;9.012;2024-02-14T13:37:09;14.10;97.20
8226;DHT22;4154;48.810;9.012;2024-02-14T13:39:35;14.20;97.10
8226;DHT22;4154;48.810;9.012;2024-02-14T13:42:00;14.10;97.30
8226;DHT22;4154;48.810;9.012;2024-02-14T13:44:27;14.10;97.30
8226;DHT22;4154;48.810;9.012;2024-02-14T13:46:53;14.10;96.90
8226;DHT22;4154;48.810;9.012;2024-02-14T13:49:19;14.10;97.10
8226;DHT22;4154;48.810;9.012;2024-02-14T13:51:50;14.10;97.20
8226;DHT22;4154;48.810;9.012;2024-02-14T13:54:20;14.00;97.30
8226;DHT22;4154;48.810;9.012;2024-02-14T13:56:46;14.10;97.30
8226;DHT22;4154;48.810;9.012;2024-02-14T13:59:14;14.10;97.30
8226;DHT22;4154;48.810;9.012;2024-02-14T14:01:39;14.10;97.40
8226;DHT22;4154;48.810;9.012;2024-02-14T14:04:06;14.00;97.50
8226;DHT22;4154;48.810;9.012;2024-02-14T14:06:32;14.00;97.50
8226;DHT22;4154;48.810;9.012;2024-02-14T14:08:59;14.00;97.50
8226;DHT22;4154;48.810;9.012;2024-02-14T14:11:25;14.00;97.60
8226;DHT22;4154;48.810;9.012;2024-02-14T14:13:51;13.90;97.70
8226;DHT22;4154;48.810;9.012;2024-02-14T14:16:16;13.80;97.90
8226;DHT22;4154;48.810;9.012;2024-02-14T14:18:42;13.80;98.00
8226;DHT22;4154;48.810;9.012;2024-02-14T14:21:08;13.80;98.10
8226;DHT22;4154;48.810;9.012;2024-02-14T14:23:34;13.80;98.10
8226;DHT22;4154;48.810;9.012;2024-02-14T14:26:00;13.80;98.00
8226;DHT22;4154;48.810;9.012;2024-02-14T14:28:26;13.80;98.20
8226;DHT22;4154;48.810;9.012;2024-02-14T14:30:54;13.80;97.90
8226;DHT22;4154;48.810;9.012;2024-02-14T14:33:20;13.80;98.00
8226;DHT22;4154;48.810;9.012;2024-02-14T14:35:47;13.70;98.00
8226;DHT22;4154;48.810;9.012;2024-02-14T14:38:15;13.70;98.00
8226;DHT22;4154;48.810;9.012;2024-02-14T14:40:41;13.70;98.20
8226;DHT22;4154;48.810;9.012;2024-02-14T14:43:07;13.60;98.20
8226;DHT22;4154;48.810;9.012;2024-02-14T14:45:32;13.60;98.10
8226;DHT22;4154;48.810;9.012;2024-02-14T14:47:58;13.60;98.10
8226;DHT22;4154;48.810;9.012;2024-02-14T14:50:24;13.60;98.20
8226;DHT22;4154;48.810;9.012;2024-02-14T14:52:51;13.60;98.10
8226;DHT22;4154;48.810;9.012;2024-02-14T14:55:18;13.60;98.10
8226;DHT22;4154;48.810;9.012;2024-02-14T14:57:44;13.60;98.20
8226;DHT22;4154;48.810;9.012;2024-02-14T15:00:12;13.60;98.30
8226;DHT22;4154;48.810;9.012;2024-02-14T15:02:39;13.60;98.40
8226;DHT22;4154;48.810;9.012;2024-02-14T15:05:12;13.50;98.40
8226;DHT22;4154;48.810;9.012;2024-02-14T15:07:39;13.40;99.90
8226;DHT22;4154;48.810;9.012;2024-02-14T15:10:06;13.50;98.50
8226;DHT22;4154;48.810;9.012;2024-02-14T15:12:33;13.50;98.40
8226;DHT22;4154;48.810;9.012;2024-02-14T15:15:02;13.50;98.30
8226;DHT22;4154;48.810;9.012;2024-02-14T15:17:29;13.40;99.90
8226;DHT22;4154;48.810;9.012;2024-02-14T15:19:55;13.40;98.30
8226;DHT22;4154;48.810;9.012;2024-02-14T15:22:21;13.50;98.30
8226;DHT22;4154;48.810;9.012;2024-02-14T15:24:49;13.50;98.30
8226;DHT22;4154;48.810;9.012;2024-02-14T15:27:14;13.50;98.20
8226;DHT22;4154;48.810;9.012;2024-02-14T15:29:47;13.40;98.20
8226;DHT22;4154;48.810;9.012;2024-02-14T15:32:32;13.40;98.30
8226;DHT22;4154;48.810;9.012;2024-02-14T15:35:16;13.40;98.30
8226;DHT22;4154;48.810;9.012;2024-02-14T15:37:42;13.40;98.30
8226;DHT22;4154;48.810;9.012;2024-02-14T15:40:10;13.30;98.30
8226;DHT22;4154;48.810;9.012;2024-02-14T15:42:36;13.30;98.30
8226;DHT22;4154;48.810;9.012;2024-02-14T15:45:02;13.30;98.30
8226;DHT22;4154;48.810;9.012;2024-02-14T15:47:28;13.40;99.90
8226;DHT22;4154;48.810;9.012;2024-02-14T15:49:53;13.30;98.40
8226;DHT22;4154;48.810;9.012;2024-02-14T15:52:19;13.30;98.40
8226;DHT22;4154;48.810;9.012;2024-02-14T15:54:45;13.30;98.30
8226;DHT22;4154;48.810;9.012;2024-02-14T15:57:11;13.20;98.40
8226;DHT22;4154;48.810;9.012;2024-02-14T15:59:37;13.20;98.50
8226;DHT22;4154;48.810;9.012;2024-02-14T16:02:04;13.20;98.60
8226;DHT22;4154;48.810;9.012;2024-02-14T16:04:29;13.10;98.50
8226;DHT22;4154;48.810;9.012;2024-02-14T16:06:56;13.10;98.60
8226;DHT22;4154;48.810;9.012;2024-02-14T16:09:22;13.10;98.70
8226;DHT22;4154;48.810;9.012;2024-02-14T16:11:47;13.10;98.70
8226;DHT22;4154;48.810;9.012;2024-02-14T16:14:13;13.10;98.60
8226;DHT22;4154;48.810;9.012;2024-02-14T16:16:42;13.10;98.50
8226;DHT22;4154;48.810;9.012;2024-02-14T16:19:08;13.10;98.60
8226;DHT22;4154;48.810;9.012;2024-02-14T16:21:33;13.00;98.60
8226;DHT22;4154;48.810;9.012;2024-02-14T16:23:59;13.00;98.60
8226;DHT22;4154;48.810;9.012;2024-02-14T16:26:25;13.00;98.60
8226;DHT22;4154;48.810;9.012;2024-02-14T16:28:50;13.00;98.70
8226;DHT22;4154;48.810;9.012;2024-02-14T16:31:16;12.90;98.70
8226;DHT22;4154;48.810;9.012;2024-02-14T16:33:42;13.00;98.80
8226;DHT22;4154;48.810;9.012;2024-02-14T16:36:08;13.00;98.80
8226;DHT22;4154;48.810;9.012;2024-02-14T16:38:34;12.90;98.70
8226;DHT22;4154;48.810;9.012;2024-02-14T16:43:25;13.00;98.50
8226;DHT22;4154;48.810;9.012;2024-02-14T16:45:51;12.90;98.70
8226;DHT22;4154;48.810;9.012;2024-02-14T16:48:17;12.90;98.70
8226;DHT22;4154;48.810;9.012;2024-02-14T16:50:43;12.90;98.80
8226;DHT22;4154;48.810;9.012;2024-02-14T16:53:09;12.90;98.80
8226;DHT22;4154;48.810;9.012;2024-02-14T16:55:35;12.90;98.80
8226;DHT22;4154;48.810;9.012;2024-02-14T16:58:01;12.90;98.80
8226;DHT22;4154;48.810;9.012;2024-02-14T17:00:28;12.90;98.70
8226;DHT22;4154;48.810;9.012;2024-02-14T17:02:54;12.90;98.80
8226;DHT22;4154;48.810;9.012;2024-02-14T17:05:20;12.80;98.90
8226;DHT22;4154;48.810;9.012;2024-02-14T17:07:47;12.80;98.80
8226;DHT22;4154;48.810;9.012;2024-02-14T17:10:13;12.80;98.80
8226;DHT22;4154;48.810;9.012;2024-02-14T17:12:39;12.80;98.80
8226;DHT22;4154;48.810;9.012;2024-02-14T17:15:05;12.80;98.80
8226;DHT22;4154;48.810;9.012;2024-02-14T17:17:32;13.00;99.90
8226;DHT22;4154;48.810;9.012;2024-02-14T17:19:57;12.80;99.00
8226;DHT22;4154;48.810;9.012;2024-02-14T17:22:23;12.70;98.90
8226;DHT22;4154;48.810;9.012;2024-02-14T17:27:20;12.70;98.80
8226;DHT22;4154;48.810;9.012;2024-02-14T17:29:47;12.70;99.00